Archival Weather

NSFA McMurdo Sound

NSFA McMurdo Sound, Antarctica (NZCM)

Report from: Tuesday, September 19, 2023 1:55 AM UTC
Current time: Monday, June 17, 2024 11:32 AM UTC

Current weather – Weather history – Daily summaries
Weather forecast

Present weatherLight snow, mist
Temperature-14.0°C (6.8°F)
Wind chill-25.2°C (-13.4°F)
Dew point-17.1°C (1.2°F)
Winds 18 kts (9.3 m/s, 20.7 mph) Northeast (40°)
Wind gusts 25 kts (12.9 m/s, 28.8 mph)
Peak wind 28 kts (14.4 m/s, 32.2 mph) East-Northeast (70°) at 01:27
Visibility2.4 mi. (3.8 km)
Clouds Few clouds 700 ft. (213 m)
Ceiling: Broken clouds 1,300 ft. (396 m)
Broken clouds 2,000 ft. (610 m)
Overcast 3,500 ft. (1,067 m)
Altimeter28.95 in.Hg (980 mB)
Precip. events Snow began 1:32 AM
Relative humidity77 %
Density altitude-5,916 ft. (-1,803 m)
Sea-level pressure108.1 kPa (1081 mB, 31.92 in.Hg)
Remarks Fully automated report
Automated weather observing station with precipitation discriminator
Variable
Flight conditions Instrument Meteorological Conditions
Raw dataNZCM 190155Z AUTO 04018G25KT 3800 -SN BR FEW007 BKN013 BKN020 OVC035 M14/M17 A2895 RMK AO2 PK WND 07028/0127 WSHFT 0134 SNB0132 BKN013 V SCT SLP810 T11401171
An error has occurred. This application may no longer respond until reloaded. Reload 🗙